Time;durP1;ratioP1;P1;durP2;ratioP2;P2;SDS_P1;SDS_P2;PMS_P1;PMS_P2;Temp;Humidity;BMP_temperature;BMP_pressure;BME280_temperature;BME280_humidity;BME280_pressure;Samples;Min_cycle;Max_cycle;Signal;HPM_P1;HPM_P2
2022/08/18 00:00:16;;;;;;;9.30;3.60;;;;;;;;;;3365942;42;20210;-62
2022/08/18 00:02:47;;;;;;;12.43;3.65;;;;;;;;;;3366023;42;20624;-61
2022/08/18 00:05:20;;;;;;;8.13;3.55;;;;;;;;;;3365861;42;20151;-61
2022/08/18 00:07:51;;;;;;;7.30;3.27;;;;;;;;;;3365531;42;20513;-62
2022/08/18 00:10:22;;;;;;;8.77;3.80;;;;;;;;;;3364671;42;20190;-62
2022/08/18 00:12:53;;;;;;;10.77;3.40;;;;;;;;;;3358720;42;20110;-61
2022/08/18 00:15:25;;;;;;;8.20;3.58;;;;;;;;;;3365235;42;20563;-64
2022/08/18 00:17:56;;;;;;;9.05;3.50;;;;;;;;;;3358884;42;20099;-61
2022/08/18 00:20:27;;;;;;;8.03;3.20;;;;;;;;;;3365325;42;20222;-61
2022/08/18 00:22:58;;;;;;;9.60;3.30;;;;;;;;;;3365482;42;20087;-61
2022/08/18 00:25:29;;;;;;;11.10;3.75;;;;;;;;;;3365341;42;20769;-61
2022/08/18 00:28:01;;;;;;;10.50;3.80;;;;;;;;;;3365730;42;20101;-61
2022/08/18 00:30:32;;;;;;;9.77;3.70;;;;;;;;;;3370972;42;20108;-61
2022/08/18 00:33:03;;;;;;;9.73;3.47;;;;;;;;;;3360938;42;20197;-61
2022/08/18 00:35:36;;;;;;;11.77;3.63;;;;;;;;;;3365115;42;20118;-61
2022/08/18 00:38:08;;;;;;;8.95;3.88;;;;;;;;;;3366513;42;20091;-61
2022/08/18 00:40:47;;;;;;;11.77;3.58;;;;;;;;;;3356919;42;20128;-63
2022/08/18 00:43:26;;;;;;;9.70;3.83;;;;;;;;;;3348337;42;20110;-61
2022/08/18 00:45:58;;;;;;;9.70;4.00;;;;;;;;;;3365488;42;20494;-61
2022/08/18 00:48:29;;;;;;;11.05;3.85;;;;;;;;;;3363127;42;20092;-61
2022/08/18 00:51:03;;;;;;;11.15;4.00;;;;;;;;;;3355082;42;20189;-61
2022/08/18 00:53:44;;;;;;;14.70;4.03;;;;;;;;;;3365202;42;20091;-61
2022/08/18 00:56:21;;;;;;;12.18;3.80;;;;;;;;;;3357243;42;20107;-62
2022/08/18 00:58:58;;;;;;;9.90;3.50;;;;;;;;;;3351569;42;20108;-63
2022/08/18 01:01:30;;;;;;;10.93;3.63;;;;;;;;;;3356710;42;20088;-62
2022/08/18 01:04:25;;;;;;;11.30;4.07;;;;;;;;;;3348160;42;20596;-62
2022/08/18 01:06:59;;;;;;;10.13;3.35;;;;;;;;;;3348036;42;20147;-62
2022/08/18 01:09:30;;;;;;;10.55;3.53;;;;;;;;;;3347350;42;20546;-61
2022/08/18 01:12:02;;;;;;;10.47;4.10;;;;;;;;;;3372175;42;20100;-62
2022/08/18 01:14:33;;;;;;;9.27;3.60;;;;;;;;;;3361265;42;20567;-61
2022/08/18 01:22:48;;;;;;;11.18;3.67;;;;;;;;;;3364891;42;20816;-61
2022/08/18 01:28:10;;;;;;;9.95;4.00;;;;;;;;;;3359856;42;20094;-61
2022/08/18 01:30:47;;;;;;;10.20;3.92;;;;;;;;;;3365255;42;20569;-60
2022/08/18 01:33:18;;;;;;;9.95;3.90;;;;;;;;;;3358826;42;20093;-62
2022/08/18 01:35:49;;;;;;;11.40;4.00;;;;;;;;;;3360375;42;20131;-62
2022/08/18 01:38:21;;;;;;;10.23;3.90;;;;;;;;;;3351110;42;20098;-61
2022/08/18 01:40:53;;;;;;;12.05;3.90;;;;;;;;;;3364798;42;20166;-62
2022/08/18 01:43:24;;;;;;;11.60;4.68;;;;;;;;;;3372571;42;20558;-62
2022/08/18 01:45:59;;;;;;;11.18;3.85;;;;;;;;;;3360217;42;20479;-62
2022/08/18 01:48:33;;;;;;;10.65;4.10;;;;;;;;;;3359765;42;20096;-60
2022/08/18 01:51:07;;;;;;;12.83;4.00;;;;;;;;;;3363949;42;20107;-61
2022/08/18 01:53:39;;;;;;;10.85;3.70;;;;;;;;;;3353849;42;20635;-60
2022/08/18 01:56:10;;;;;;;11.90;4.20;;;;;;;;;;3352275;42;20100;-62
2022/08/18 01:58:42;;;;;;;8.77;3.80;;;;;;;;;;3368408;42;20139;-62
2022/08/18 02:01:14;;;;;;;9.93;3.60;;;;;;;;;;3372115;42;20206;-63
2022/08/18 02:03:48;;;;;;;8.73;3.53;;;;;;;;;;3357880;42;20526;-61
2022/08/18 02:06:19;;;;;;;10.93;4.00;;;;;;;;;;3344881;42;20158;-62
2022/08/18 02:08:50;;;;;;;7.70;3.22;;;;;;;;;;3359903;42;20083;-60
2022/08/18 02:11:21;;;;;;;8.48;3.33;;;;;;;;;;3367069;42;20151;-63
2022/08/18 02:13:52;;;;;;;8.15;3.00;;;;;;;;;;3369655;42;20143;-58
2022/08/18 02:16:23;;;;;;;9.83;3.40;;;;;;;;;;3353416;42;20525;-62
2022/08/18 02:18:54;;;;;;;10.63;3.28;;;;;;;;;;3366879;42;20127;-60
2022/08/18 02:21:26;;;;;;;9.27;3.17;;;;;;;;;;3360188;42;20212;-62
2022/08/18 02:23:57;;;;;;;10.27;3.10;;;;;;;;;;3348865;42;20171;-60
2022/08/18 02:26:28;;;;;;;10.98;3.53;;;;;;;;;;3361383;42;20712;-62
2022/08/18 02:29:00;;;;;;;10.13;3.13;;;;;;;;;;3360631;42;20131;-62
2022/08/18 02:31:31;;;;;;;8.00;3.42;;;;;;;;;;3363781;42;20147;-61
2022/08/18 02:34:02;;;;;;;10.35;3.47;;;;;;;;;;3355645;42;20096;-61
2022/08/18 02:36:33;;;;;;;10.32;3.20;;;;;;;;;;3361706;42;20096;-62
2022/08/18 02:39:04;;;;;;;9.77;3.08;;;;;;;;;;3360656;42;20104;-62
2022/08/18 02:41:35;;;;;;;8.33;2.90;;;;;;;;;;3362079;42;20092;-61
2022/08/18 02:44:07;;;;;;;10.40;3.40;;;;;;;;;;3360399;42;20613;-62
2022/08/18 02:46:38;;;;;;;8.85;3.10;;;;;;;;;;3352475;42;20098;-62
2022/08/18 02:49:11;;;;;;;7.93;2.85;;;;;;;;;;3363644;42;20087;-61
2022/08/18 02:51:43;;;;;;;9.38;3.00;;;;;;;;;;3364413;42;20558;-62
2022/08/18 02:54:14;;;;;;;9.07;2.80;;;;;;;;;;3364735;42;20099;-62
2022/08/18 02:56:45;;;;;;;9.10;2.90;;;;;;;;;;3364467;42;20589;-62
2022/08/18 02:59:20;;;;;;;7.47;2.60;;;;;;;;;;3370327;42;20091;-63
2022/08/18 03:01:53;;;;;;;7.63;2.80;;;;;;;;;;3362821;42;20150;-62
2022/08/18 03:04:26;;;;;;;8.80;2.78;;;;;;;;;;3351766;42;20095;-62
2022/08/18 03:07:03;;;;;;;12.10;2.77;;;;;;;;;;3364265;42;20585;-61
2022/08/18 03:09:34;;;;;;;9.63;2.75;;;;;;;;;;3364249;42;20092;-61
2022/08/18 03:12:07;;;;;;;8.82;2.60;;;;;;;;;;3372630;42;20139;-62
2022/08/18 03:14:38;;;;;;;9.00;2.60;;;;;;;;;;3369903;42;20092;-61
2022/08/18 03:17:10;;;;;;;8.50;2.50;;;;;;;;;;3362402;42;20091;-62
2022/08/18 03:19:43;;;;;;;8.43;2.60;;;;;;;;;;3366026;42;20175;-62
2022/08/18 03:22:14;;;;;;;6.60;2.67;;;;;;;;;;3365693;42;20190;-62
2022/08/18 03:24:46;;;;;;;7.28;2.20;;;;;;;;;;3365627;42;20604;-62
2022/08/18 03:27:17;;;;;;;8.63;2.70;;;;;;;;;;3366018;42;20099;-62
2022/08/18 03:29:49;;;;;;;8.90;2.75;;;;;;;;;;3371194;42;20163;-61
2022/08/18 03:32:21;;;;;;;8.50;2.60;;;;;;;;;;3358400;42;20485;-61
2022/08/18 03:34:52;;;;;;;8.63;2.50;;;;;;;;;;3365734;42;20095;-61
2022/08/18 03:37:24;;;;;;;8.45;2.58;;;;;;;;;;3370806;42;20088;-61
2022/08/18 03:39:55;;;;;;;7.55;2.55;;;;;;;;;;3354401;42;20102;-62
2022/08/18 03:42:26;;;;;;;7.75;2.42;;;;;;;;;;3365895;42;20166;-61
2022/08/18 03:44:57;;;;;;;11.30;2.57;;;;;;;;;;3370429;42;20174;-61
2022/08/18 03:47:28;;;;;;;6.97;2.08;;;;;;;;;;3370822;42;20095;-62
2022/08/18 03:50:00;;;;;;;6.57;2.13;;;;;;;;;;3365721;42;20100;-62
2022/08/18 03:52:31;;;;;;;7.15;2.42;;;;;;;;;;3369419;42;20104;-61
2022/08/18 03:55:03;;;;;;;6.80;2.38;;;;;;;;;;3356700;42;20159;-61
2022/08/18 03:57:34;;;;;;;10.37;2.27;;;;;;;;;;3365811;42;20107;-64
2022/08/18 04:00:08;;;;;;;7.00;2.20;;;;;;;;;;3373103;42;20092;-61
2022/08/18 04:02:39;;;;;;;7.57;2.10;;;;;;;;;;3365851;42;20242;-63
2022/08/18 04:05:12;;;;;;;7.95;2.40;;;;;;;;;;3358549;42;20550;-63
2022/08/18 04:07:43;;;;;;;11.00;2.33;;;;;;;;;;3366087;42;20150;-61
2022/08/18 04:10:15;;;;;;;9.00;2.40;;;;;;;;;;3365827;42;20151;-61
2022/08/18 04:12:46;;;;;;;6.10;2.55;;;;;;;;;;3365748;42;20110;-62
2022/08/18 04:15:17;;;;;;;8.80;2.00;;;;;;;;;;3365737;42;20164;-61
2022/08/18 04:17:49;;;;;;;7.25;2.58;;;;;;;;;;3365321;42;20100;-62
2022/08/18 04:20:20;;;;;;;6.30;2.10;;;;;;;;;;3360225;42;20119;-61
2022/08/18 04:22:51;;;;;;;9.93;2.43;;;;;;;;;;3361089;42;20099;-63
2022/08/18 04:25:22;;;;;;;8.27;2.30;;;;;;;;;;3367006;42;20143;-62
2022/08/18 04:27:56;;;;;;;6.65;2.20;;;;;;;;;;3366144;42;20146;-61
2022/08/18 04:30:28;;;;;;;5.47;2.13;;;;;;;;;;3367848;42;20555;-61
2022/08/18 04:33:01;;;;;;;6.28;2.42;;;;;;;;;;3359122;42;20179;-61
2022/08/18 04:35:32;;;;;;;6.20;2.20;;;;;;;;;;3373158;42;20103;-63
2022/08/18 04:38:03;;;;;;;5.75;2.00;;;;;;;;;;3368251;42;20084;-61
2022/08/18 04:40:35;;;;;;;6.78;2.15;;;;;;;;;;3350836;42;20108;-62
2022/08/18 04:43:13;;;;;;;6.78;2.03;;;;;;;;;;3362229;42;20091;-60
2022/08/18 04:45:45;;;;;;;7.47;2.13;;;;;;;;;;3350976;42;20204;-62
2022/08/18 04:48:16;;;;;;;6.80;2.30;;;;;;;;;;3353996;42;20431;-63
2022/08/18 04:50:47;;;;;;;6.97;1.98;;;;;;;;;;3372361;42;20151;-62
2022/08/18 04:56:08;;;;;;;7.90;2.10;;;;;;;;;;3361879;42;20222;-63
2022/08/18 04:58:39;;;;;;;6.43;2.25;;;;;;;;;;3365459;42;20092;-62
2022/08/18 05:01:10;;;;;;;6.90;2.20;;;;;;;;;;3365003;42;20092;-60
2022/08/18 05:03:41;;;;;;;5.63;2.13;;;;;;;;;;3365121;42;20102;-60
2022/08/18 05:06:12;;;;;;;6.75;2.10;;;;;;;;;;3363633;42;20118;-63
2022/08/18 05:08:45;;;;;;;6.60;2.00;;;;;;;;;;3372288;42;20156;-62
2022/08/18 05:11:17;;;;;;;6.25;2.20;;;;;;;;;;3358371;42;20092;-62
2022/08/18 05:13:48;;;;;;;5.73;2.20;;;;;;;;;;3372273;42;20211;-63
2022/08/18 05:16:19;;;;;;;7.32;2.08;;;;;;;;;;3349175;42;20187;-63
2022/08/18 05:18:52;;;;;;;6.10;2.10;;;;;;;;;;3364839;42;20084;-63
2022/08/18 05:21:24;;;;;;;5.70;2.08;;;;;;;;;;3356075;42;20148;-62
2022/08/18 05:23:55;;;;;;;15.85;2.95;;;;;;;;;;3364704;42;20183;-63
2022/08/18 05:26:26;;;;;;;5.87;2.17;;;;;;;;;;3355034;42;20084;-63
2022/08/18 05:28:57;;;;;;;5.40;2.10;;;;;;;;;;3364823;42;20083;-64
2022/08/18 05:31:29;;;;;;;5.30;2.00;;;;;;;;;;3364596;42;20103;-63
2022/08/18 05:34:02;;;;;;;8.27;2.58;;;;;;;;;;3364536;42;20648;-63
2022/08/18 05:36:49;;;;;;;5.93;2.00;;;;;;;;;;3370163;42;20096;-62
2022/08/18 05:39:24;;;;;;;5.80;2.10;;;;;;;;;;3371630;42;20095;-63
2022/08/18 05:42:05;;;;;;;5.20;1.90;;;;;;;;;;3357817;42;20096;-63
2022/08/18 05:44:42;;;;;;;6.82;2.20;;;;;;;;;;3355874;42;20787;-62
2022/08/18 05:47:15;;;;;;;8.13;2.22;;;;;;;;;;3359181;42;20108;-64
2022/08/18 05:49:47;;;;;;;6.60;2.00;;;;;;;;;;3353679;42;20092;-63
2022/08/18 05:52:29;;;;;;;5.63;2.10;;;;;;;;;;3357725;42;20102;-62
2022/08/18 05:58:22;;;;;;;6.00;2.20;;;;;;;;;;3355677;42;20100;-63
2022/08/18 06:00:55;;;;;;;8.18;1.92;;;;;;;;;;3348802;42;20193;-62
2022/08/18 06:03:34;;;;;;;7.30;2.20;;;;;;;;;;3353260;42;20104;-62
2022/08/18 06:06:09;;;;;;;7.73;1.83;;;;;;;;;;3361093;42;20109;-63
2022/08/18 06:08:44;;;;;;;8.82;2.00;;;;;;;;;;3364545;42;20117;-63
2022/08/18 06:11:15;;;;;;;8.57;2.25;;;;;;;;;;3362733;42;20174;-62
2022/08/18 06:13:46;;;;;;;7.22;2.00;;;;;;;;;;3365338;42;20103;-63
2022/08/18 06:16:55;;;;;;;6.50;1.90;;;;;;;;;;3368184;42;20096;-64
2022/08/18 06:19:39;;;;;;;6.13;2.10;;;;;;;;;;3354142;42;20100;-63
2022/08/18 06:22:26;;;;;;;6.20;2.45;;;;;;;;;;3360982;42;20135;-62
2022/08/18 06:25:15;;;;;;;7.13;2.10;;;;;;;;;;3360532;42;20191;-62
2022/08/18 06:27:58;;;;;;;5.60;2.25;;;;;;;;;;3366477;42;20292;-62
2022/08/18 06:30:41;;;;;;;6.65;2.10;;;;;;;;;;3360164;42;20145;-64
2022/08/18 06:33:34;;;;;;;10.47;2.50;;;;;;;;;;3363179;42;20131;-63
2022/08/18 06:36:26;;;;;;;7.57;2.70;;;;;;;;;;3374517;42;20096;-65
2022/08/18 06:39:03;;;;;;;6.82;2.30;;;;;;;;;;3345957;42;20143;-61
2022/08/18 06:41:38;;;;;;;7.63;2.15;;;;;;;;;;3367986;42;20096;-64
2022/08/18 06:44:31;;;;;;;13.88;2.65;;;;;;;;;;3371171;42;20122;-64
2022/08/18 06:47:08;;;;;;;7.37;2.40;;;;;;;;;;3363978;42;20084;-63
2022/08/18 06:49:56;;;;;;;7.72;2.03;;;;;;;;;;3372097;42;20191;-63
2022/08/18 06:52:33;;;;;;;6.32;2.00;;;;;;;;;;3366454;42;20143;-63
2022/08/18 06:55:14;;;;;;;12.13;2.00;;;;;;;;;;3374304;42;20194;-64
2022/08/18 06:57:56;;;;;;;12.40;1.92;;;;;;;;;;3358768;42;20163;-62
2022/08/18 07:00:29;;;;;;;7.63;1.80;;;;;;;;;;3365939;42;20505;-65
2022/08/18 07:03:06;;;;;;;6.25;1.90;;;;;;;;;;3372992;42;20096;-62
2022/08/18 07:05:39;;;;;;;6.55;2.10;;;;;;;;;;3366226;42;20621;-63
2022/08/18 07:08:16;;;;;;;6.25;1.95;;;;;;;;;;3350335;42;20088;-63
2022/08/18 07:10:49;;;;;;;5.60;1.95;;;;;;;;;;3362649;42;20146;-65
2022/08/18 07:13:25;;;;;;;7.13;1.90;;;;;;;;;;3373272;42;20107;-62
2022/08/18 07:16:26;;;;;;;6.45;1.63;;;;;;;;;;3372484;42;20590;-62
2022/08/18 07:19:10;;;;;;;13.85;2.00;;;;;;;;;;3361837;42;20084;-62
2022/08/18 07:21:41;;;;;;;7.43;1.73;;;;;;;;;;3354983;42;20119;-63
2022/08/18 07:24:26;;;;;;;5.80;1.63;;;;;;;;;;3372675;42;20103;-62
2022/08/18 07:27:01;;;;;;;5.40;1.77;;;;;;;;;;3358754;42;20573;-62
2022/08/18 07:29:35;;;;;;;12.27;2.13;;;;;;;;;;3373250;42;20265;-64
2022/08/18 07:32:14;;;;;;;12.38;2.50;;;;;;;;;;3358552;42;20091;-62
2022/08/18 07:34:48;;;;;;;5.60;1.70;;;;;;;;;;3365426;42;20098;-63
2022/08/18 07:37:43;;;;;;;5.85;1.80;;;;;;;;;;3364825;42;20100;-62
2022/08/18 07:40:26;;;;;;;5.13;1.80;;;;;;;;;;3363921;42;20100;-63
2022/08/18 07:43:07;;;;;;;5.50;1.80;;;;;;;;;;3365346;42;20103;-63
2022/08/18 07:45:45;;;;;;;5.85;1.90;;;;;;;;;;3356965;42;20554;-62
2022/08/18 07:48:18;;;;;;;5.18;1.70;;;;;;;;;;3354491;42;20099;-63
2022/08/18 07:51:17;;;;;;;5.43;1.83;;;;;;;;;;3365471;42;20099;-61
2022/08/18 07:54:27;;;;;;;6.53;2.00;;;;;;;;;;3360117;42;20102;-62
2022/08/18 07:57:11;;;;;;;5.90;1.80;;;;;;;;;;3349836;42;20103;-62
2022/08/18 07:59:49;;;;;;;4.90;1.73;;;;;;;;;;3365139;42;20159;-62
2022/08/18 08:02:27;;;;;;;6.15;2.00;;;;;;;;;;3363084;42;20212;-63
2022/08/18 08:05:22;;;;;;;6.90;1.70;;;;;;;;;;3373497;42;20581;-62
2022/08/18 08:08:41;;;;;;;5.23;1.80;;;;;;;;;;3363279;42;20088;-62
2022/08/18 08:11:26;;;;;;;5.88;1.60;;;;;;;;;;3343891;42;20627;-62
2022/08/18 08:14:24;;;;;;;5.13;1.58;;;;;;;;;;3362112;42;20087;-63
2022/08/18 08:17:23;;;;;;;5.00;1.83;;;;;;;;;;3363159;42;20096;-63
2022/08/18 08:19:58;;;;;;;12.27;1.80;;;;;;;;;;3352340;42;20179;-60
2022/08/18 08:22:51;;;;;;;6.03;1.60;;;;;;;;;;3365540;42;20114;-62
2022/08/18 08:25:34;;;;;;;6.45;1.67;;;;;;;;;;3365559;42;20159;-62
2022/08/18 08:28:31;;;;;;;5.78;1.73;;;;;;;;;;3372591;42;20159;-64
2022/08/18 08:31:09;;;;;;;5.38;1.50;;;;;;;;;;3360113;42;20099;-62
2022/08/18 08:33:51;;;;;;;5.50;1.70;;;;;;;;;;3367137;42;20096;-61
2022/08/18 08:36:26;;;;;;;6.37;1.90;;;;;;;;;;3355053;42;20104;-60
2022/08/18 08:39:18;;;;;;;6.30;1.73;;;;;;;;;;3354281;42;20087;-61
2022/08/18 08:41:55;;;;;;;7.70;1.80;;;;;;;;;;3353752;42;20167;-61
2022/08/18 08:44:34;;;;;;;6.05;1.90;;;;;;;;;;3349365;42;20096;-62
2022/08/18 08:47:33;;;;;;;7.35;1.70;;;;;;;;;;3349321;42;20593;-62
2022/08/18 08:50:17;;;;;;;7.37;1.97;;;;;;;;;;3352688;42;20095;-63
2022/08/18 08:53:28;;;;;;;5.53;1.75;;;;;;;;;;3356629;42;20567;-63
2022/08/18 08:56:07;;;;;;;6.65;1.40;;;;;;;;;;3355521;42;20181;-62
2022/08/18 08:58:57;;;;;;;5.38;1.52;;;;;;;;;;3358596;42;20179;-62
2022/08/18 09:01:51;;;;;;;15.90;2.17;;;;;;;;;;3369652;42;20119;-62
2022/08/18 09:04:44;;;;;;;15.70;2.30;;;;;;;;;;3357363;42;20155;-63
2022/08/18 09:07:27;;;;;;;5.97;2.10;;;;;;;;;;3367501;42;20122;-62
2022/08/18 09:10:11;;;;;;;12.05;2.45;;;;;;;;;;3366751;42;20165;-62
2022/08/18 09:13:05;;;;;;;6.95;2.13;;;;;;;;;;3365941;42;20084;-63
2022/08/18 09:16:00;;;;;;;6.07;2.00;;;;;;;;;;3360163;42;20140;-62
2022/08/18 09:19:17;;;;;;;7.37;1.83;;;;;;;;;;3368526;42;20088;-63
2022/08/18 09:22:10;;;;;;;5.43;1.80;;;;;;;;;;3349478;42;20559;-63
2022/08/18 09:24:48;;;;;;;14.18;2.35;;;;;;;;;;3358548;42;20153;-65
2022/08/18 09:27:25;;;;;;;7.07;2.13;;;;;;;;;;3357959;42;20871;-64
2022/08/18 09:29:58;;;;;;;5.95;1.98;;;;;;;;;;3359166;42;20172;-63
2022/08/18 09:32:56;;;;;;;4.87;2.00;;;;;;;;;;3372150;42;20088;-63
2022/08/18 09:36:01;;;;;;;6.93;1.90;;;;;;;;;;3351322;42;20165;-61
2022/08/18 09:41:31;;;;;;;5.55;2.20;;;;;;;;;;3365699;42;20100;-64
2022/08/18 09:44:10;;;;;;;6.65;2.10;;;;;;;;;;3363093;42;20110;-63
2022/08/18 09:46:41;;;;;;;6.00;1.90;;;;;;;;;;3357123;42;20628;-62
2022/08/18 09:49:22;;;;;;;6.65;2.08;;;;;;;;;;3370004;42;20582;-62
2022/08/18 09:51:57;;;;;;;6.07;1.90;;;;;;;;;;3364306;42;20115;-63
2022/08/18 09:54:31;;;;;;;5.22;1.88;;;;;;;;;;3364269;42;20563;-61
2022/08/18 09:57:19;;;;;;;6.85;2.00;;;;;;;;;;3363310;42;20509;-63
2022/08/18 09:59:53;;;;;;;6.20;2.20;;;;;;;;;;3364158;42;20169;-62
2022/08/18 10:02:27;;;;;;;6.57;2.00;;;;;;;;;;3363688;42;20106;-61
2022/08/18 10:05:19;;;;;;;4.55;1.67;;;;;;;;;;3364006;42;20103;-63
2022/08/18 10:08:05;;;;;;;6.82;1.88;;;;;;;;;;3359205;42;20138;-61
2022/08/18 10:10:53;;;;;;;9.27;2.10;;;;;;;;;;3364241;42;20095;-62
2022/08/18 10:13:33;;;;;;;6.93;1.90;;;;;;;;;;3358054;42;20834;-62
2022/08/18 10:16:16;;;;;;;6.85;2.10;;;;;;;;;;3364330;42;20155;-62
2022/08/18 10:19:03;;;;;;;5.55;2.20;;;;;;;;;;3363643;42;20254;-63
2022/08/18 10:21:57;;;;;;;6.00;2.08;;;;;;;;;;3366502;42;20136;-62
2022/08/18 10:24:33;;;;;;;6.15;2.05;;;;;;;;;;3371067;42;20138;-61
2022/08/18 10:27:07;;;;;;;6.83;2.20;;;;;;;;;;3370492;42;20088;-60
2022/08/18 10:29:48;;;;;;;7.00;2.25;;;;;;;;;;3359885;42;20092;-63
2022/08/18 10:32:24;;;;;;;8.98;2.10;;;;;;;;;;3364754;42;20092;-62
2022/08/18 10:34:56;;;;;;;6.22;2.25;;;;;;;;;;3362362;42;20080;-62
2022/08/18 10:37:36;;;;;;;8.77;2.42;;;;;;;;;;3363387;42;20088;-62
2022/08/18 10:40:13;;;;;;;6.03;2.50;;;;;;;;;;3370348;42;20083;-62
2022/08/18 10:42:56;;;;;;;7.13;2.33;;;;;;;;;;3365033;42;20088;-63
2022/08/18 10:45:35;;;;;;;6.82;2.10;;;;;;;;;;3367775;42;20545;-61
2022/08/18 10:48:23;;;;;;;8.80;2.30;;;;;;;;;;3355977;42;20084;-64
2022/08/18 10:51:02;;;;;;;6.72;2.20;;;;;;;;;;3356432;42;20110;-63
2022/08/18 10:53:55;;;;;;;6.57;2.43;;;;;;;;;;3359358;42;20084;-62
2022/08/18 10:56:38;;;;;;;6.45;2.20;;;;;;;;;;3366566;42;20139;-64
2022/08/18 10:59:34;;;;;;;6.75;2.20;;;;;;;;;;3349465;42;20088;-61
2022/08/18 11:02:09;;;;;;;6.13;2.00;;;;;;;;;;3347124;42;20100;-62
2022/08/18 11:04:43;;;;;;;5.32;2.10;;;;;;;;;;3371742;42;20591;-63
2022/08/18 11:07:21;;;;;;;9.33;2.83;;;;;;;;;;3366194;42;20096;-59
2022/08/18 11:09:54;;;;;;;5.70;2.22;;;;;;;;;;3367153;42;20102;-61
2022/08/18 11:12:47;;;;;;;5.35;2.10;;;;;;;;;;3361136;42;20139;-62
2022/08/18 11:15:53;;;;;;;10.85;2.40;;;;;;;;;;3373295;42;20084;-63
2022/08/18 11:18:33;;;;;;;6.22;2.42;;;;;;;;;;3335284;42;20100;-63
2022/08/18 11:21:24;;;;;;;6.17;2.40;;;;;;;;;;3374563;42;20198;-63
2022/08/18 11:24:16;;;;;;;6.50;2.63;;;;;;;;;;3362132;42;20097;-63
2022/08/18 11:26:53;;;;;;;6.50;2.40;;;;;;;;;;3366869;42;20644;-63
2022/08/18 11:29:38;;;;;;;6.00;2.50;;;;;;;;;;3366946;42;20099;-62
2022/08/18 11:32:22;;;;;;;6.90;2.40;;;;;;;;;;3360029;42;20108;-63
2022/08/18 11:35:43;;;;;;;6.63;2.20;;;;;;;;;;3365406;42;20092;-62
2022/08/18 11:38:15;;;;;;;8.77;2.40;;;;;;;;;;3348189;42;20175;-62
2022/08/18 11:40:49;;;;;;;6.05;2.20;;;;;;;;;;3365649;42;20206;-63
2022/08/18 11:43:30;;;;;;;6.10;2.03;;;;;;;;;;3363849;42;20119;-62
2022/08/18 11:46:12;;;;;;;18.95;2.65;;;;;;;;;;3360935;42;20094;-62
2022/08/18 11:48:44;;;;;;;6.60;2.40;;;;;;;;;;3372511;42;20088;-63
2022/08/18 11:51:19;;;;;;;5.68;2.40;;;;;;;;;;3365453;42;20138;-63
2022/08/18 11:53:52;;;;;;;6.75;2.67;;;;;;;;;;3366182;42;20080;-63
2022/08/18 11:56:25;;;;;;;6.30;2.38;;;;;;;;;;3364020;42;20084;-63
2022/08/18 11:58:58;;;;;;;8.00;2.63;;;;;;;;;;3352710;42;20098;-62
2022/08/18 12:01:37;;;;;;;6.90;2.57;;;;;;;;;;3363296;42;20110;-63
2022/08/18 12:04:16;;;;;;;5.55;2.20;;;;;;;;;;3368482;42;20084;-63
2022/08/18 12:06:53;;;;;;;6.93;2.40;;;;;;;;;;3363113;42;20092;-63
2022/08/18 12:09:46;;;;;;;5.88;2.22;;;;;;;;;;3364290;42;20096;-63
2022/08/18 12:12:22;;;;;;;6.05;2.28;;;;;;;;;;3349239;42;20143;-63
2022/08/18 12:15:02;;;;;;;6.73;2.43;;;;;;;;;;3358974;42;20095;-61
2022/08/18 12:17:34;;;;;;;7.05;2.60;;;;;;;;;;3366518;42;20178;-62
2022/08/18 12:20:09;;;;;;;8.65;2.90;;;;;;;;;;3371585;42;20186;-64
2022/08/18 12:22:41;;;;;;;5.78;2.28;;;;;;;;;;3357059;42;20679;-62
2022/08/18 12:25:15;;;;;;;8.85;2.70;;;;;;;;;;3361295;42;20083;-63
2022/08/18 12:27:46;;;;;;;6.87;2.40;;;;;;;;;;3357679;42;20165;-62
2022/08/18 12:30:20;;;;;;;5.95;2.30;;;;;;;;;;3365045;42;20099;-63
2022/08/18 12:32:51;;;;;;;8.27;2.35;;;;;;;;;;3359975;42;20144;-64
2022/08/18 12:35:22;;;;;;;6.57;2.50;;;;;;;;;;3361701;42;20163;-64
2022/08/18 12:37:55;;;;;;;6.57;2.17;;;;;;;;;;3356206;42;20088;-62
2022/08/18 12:40:26;;;;;;;5.80;2.50;;;;;;;;;;3363973;42;20093;-63
2022/08/18 12:42:58;;;;;;;7.47;2.38;;;;;;;;;;3364650;42;20625;-62
2022/08/18 12:45:29;;;;;;;5.28;2.22;;;;;;;;;;3367368;42;20151;-63
2022/08/18 12:48:01;;;;;;;6.75;2.33;;;;;;;;;;3349051;42;20080;-63
2022/08/18 12:50:32;;;;;;;7.18;2.40;;;;;;;;;;3359895;42;20084;-64
2022/08/18 12:53:04;;;;;;;5.97;2.47;;;;;;;;;;3348971;42;20084;-63
2022/08/18 12:55:38;;;;;;;8.20;2.35;;;;;;;;;;3356190;42;20088;-63
2022/08/18 12:58:10;;;;;;;6.00;2.30;;;;;;;;;;3363173;42;20698;-61
2022/08/18 13:00:42;;;;;;;7.47;2.40;;;;;;;;;;3356166;42;20155;-63
2022/08/18 13:03:13;;;;;;;5.85;2.67;;;;;;;;;;3360262;42;20099;-64
2022/08/18 13:05:45;;;;;;;9.00;2.40;;;;;;;;;;3355897;42;20175;-62
2022/08/18 13:08:19;;;;;;;7.80;3.17;;;;;;;;;;3344855;42;20203;-63
2022/08/18 13:10:50;;;;;;;6.80;2.40;;;;;;;;;;3364564;42;20131;-62
2022/08/18 13:13:21;;;;;;;6.13;2.78;;;;;;;;;;3352443;42;20231;-64
2022/08/18 13:15:54;;;;;;;6.60;2.40;;;;;;;;;;3363851;42;20101;-64
2022/08/18 13:18:25;;;;;;;6.63;2.30;;;;;;;;;;3371755;42;20088;-64
2022/08/18 13:20:57;;;;;;;5.63;2.50;;;;;;;;;;3348311;42;20092;-63
2022/08/18 13:23:29;;;;;;;5.85;2.45;;;;;;;;;;3363894;42;20189;-62
2022/08/18 13:26:00;;;;;;;5.85;2.58;;;;;;;;;;3364939;42;20877;-63
2022/08/18 13:28:32;;;;;;;8.32;2.47;;;;;;;;;;3362833;42;20166;-63
2022/08/18 13:31:03;;;;;;;8.17;2.50;;;;;;;;;;3363681;42;20135;-62
2022/08/18 13:33:35;;;;;;;6.35;2.38;;;;;;;;;;3364480;42;20103;-62
2022/08/18 13:36:06;;;;;;;6.90;2.50;;;;;;;;;;3364884;42;20151;-64
2022/08/18 13:38:41;;;;;;;7.90;2.40;;;;;;;;;;3357883;42;20550;-63
2022/08/18 13:41:13;;;;;;;9.20;2.50;;;;;;;;;;3365029;42;20551;-62
2022/08/18 13:43:45;;;;;;;6.73;2.60;;;;;;;;;;3358034;42;20558;-62
2022/08/18 13:46:17;;;;;;;6.03;2.22;;;;;;;;;;3359776;42;20182;-62
2022/08/18 13:48:48;;;;;;;6.97;2.70;;;;;;;;;;3363782;42;20080;-63
2022/08/18 13:51:22;;;;;;;7.00;2.55;;;;;;;;;;3364252;42;20541;-65
2022/08/18 13:53:53;;;;;;;6.65;2.42;;;;;;;;;;3357245;42;20199;-62
2022/08/18 13:56:24;;;;;;;5.57;2.60;;;;;;;;;;3371728;42;20103;-62
2022/08/18 13:58:55;;;;;;;7.95;2.75;;;;;;;;;;3364189;42;20079;-63
2022/08/18 14:01:27;;;;;;;5.88;2.50;;;;;;;;;;3370230;42;20088;-62
2022/08/18 14:03:58;;;;;;;9.73;2.80;;;;;;;;;;3364199;42;20596;-62
2022/08/18 14:06:29;;;;;;;7.07;2.50;;;;;;;;;;3359076;42;20636;-63
2022/08/18 14:09:00;;;;;;;9.67;2.90;;;;;;;;;;3360010;42;20497;-64
2022/08/18 14:11:33;;;;;;;7.95;2.50;;;;;;;;;;3362883;42;20238;-63
2022/08/18 14:14:04;;;;;;;7.53;3.42;;;;;;;;;;3352647;42;20092;-64
2022/08/18 14:16:36;;;;;;;5.32;2.22;;;;;;;;;;3360234;42;20227;-65
2022/08/18 14:27:36;;;;;;;7.50;2.70;;;;;;;;;;3364292;42;20091;-62
2022/08/18 14:30:09;;;;;;;7.55;3.08;;;;;;;;;;3357415;42;20095;-64
2022/08/18 14:32:41;;;;;;;7.15;3.10;;;;;;;;;;3371345;42;20099;-64
2022/08/18 14:35:12;;;;;;;7.97;3.30;;;;;;;;;;3356916;42;20096;-65
2022/08/18 14:37:44;;;;;;;6.85;2.80;;;;;;;;;;3357412;42;20139;-62
2022/08/18 14:40:15;;;;;;;7.80;3.15;;;;;;;;;;3363027;42;20157;-61
2022/08/18 14:42:46;;;;;;;6.70;3.33;;;;;;;;;;3348890;42;20093;-64
2022/08/18 14:45:18;;;;;;;8.00;3.17;;;;;;;;;;3357354;42;20095;-64
2022/08/18 14:47:52;;;;;;;10.17;3.07;;;;;;;;;;3365540;42;20104;-63
2022/08/18 14:50:23;;;;;;;8.00;3.40;;;;;;;;;;3359298;42;20088;-63
2022/08/18 14:52:55;;;;;;;7.95;3.25;;;;;;;;;;3355893;42;20088;-63
2022/08/18 14:55:26;;;;;;;9.00;3.35;;;;;;;;;;3352850;42;20083;-62
2022/08/18 14:57:57;;;;;;;10.40;3.75;;;;;;;;;;3357828;42;20103;-63
2022/08/18 15:00:28;;;;;;;8.23;3.20;;;;;;;;;;3368229;42;20585;-62
2022/08/18 15:03:00;;;;;;;8.20;3.67;;;;;;;;;;3354270;42;20615;-62
2022/08/18 15:05:32;;;;;;;8.20;3.00;;;;;;;;;;3351712;42;20172;-63
2022/08/18 15:08:03;;;;;;;10.50;3.40;;;;;;;;;;3355528;42;20103;-62
2022/08/18 15:10:34;;;;;;;10.15;3.65;;;;;;;;;;3365363;42;20164;-62
2022/08/18 15:13:07;;;;;;;11.77;3.87;;;;;;;;;;3358005;42;20159;-63
2022/08/18 15:15:38;;;;;;;8.10;3.10;;;;;;;;;;3361140;42;20586;-63
2022/08/18 15:18:10;;;;;;;9.20;3.33;;;;;;;;;;3369119;42;20554;-63
2022/08/18 15:26:21;;;;;;;8.13;3.77;;;;;;;;;;3358932;42;20099;-63
2022/08/18 15:28:52;;;;;;;9.40;4.00;;;;;;;;;;3347745;42;20148;-62
2022/08/18 15:31:26;;;;;;;10.10;3.85;;;;;;;;;;3358206;42;20098;-63
2022/08/18 15:33:57;;;;;;;9.57;4.00;;;;;;;;;;3354518;42;20102;-63
2022/08/18 15:36:30;;;;;;;7.88;3.80;;;;;;;;;;3361094;42;20138;-62
2022/08/18 15:39:03;;;;;;;8.83;4.20;;;;;;;;;;3364231;42;20110;-63
2022/08/18 15:41:35;;;;;;;9.77;4.30;;;;;;;;;;3368724;42;20159;-63
2022/08/18 15:44:08;;;;;;;8.27;3.65;;;;;;;;;;3351843;42;20150;-65
2022/08/18 15:46:39;;;;;;;7.13;3.53;;;;;;;;;;3370061;42;20092;-62
2022/08/18 15:49:10;;;;;;;11.55;3.97;;;;;;;;;;3350320;42;20183;-62
2022/08/18 15:51:42;;;;;;;8.20;3.90;;;;;;;;;;3368755;42;20166;-62
2022/08/18 15:54:13;;;;;;;10.13;3.45;;;;;;;;;;3365315;42;20257;-63
2022/08/18 15:56:44;;;;;;;9.48;3.97;;;;;;;;;;3359929;42;20095;-61
2022/08/18 15:59:15;;;;;;;9.07;4.28;;;;;;;;;;3357679;42;20143;-62
2022/08/18 16:01:47;;;;;;;9.25;4.28;;;;;;;;;;3365539;42;20087;-62
2022/08/18 16:04:18;;;;;;;9.13;4.20;;;;;;;;;;3361264;42;20548;-61
2022/08/18 16:06:50;;;;;;;11.65;4.13;;;;;;;;;;3356550;42;20491;-61